sensor_id;sensor_type;location;lat;lon;timestamp;P1;durP1;ratioP1;P2;durP2;ratioP2
24301;SDS011;12421;49.732;20.078;2022-07-29T00:07:56;8.05;;;5.60;;
24301;SDS011;12421;49.732;20.078;2022-07-29T00:17:58;8.05;;;4.87;;
24301;SDS011;12421;49.732;20.078;2022-07-29T00:28:01;13.95;;;5.35;;
24301;SDS011;12421;49.732;20.078;2022-07-29T00:38:02;8.65;;;5.05;;
24301;SDS011;12421;49.732;20.078;2022-07-29T00:48:05;8.45;;;5.35;;
24301;SDS011;12421;49.732;20.078;2022-07-29T00:58:09;7.42;;;5.15;;
24301;SDS011;12421;49.732;20.078;2022-07-29T01:08:15;9.03;;;5.08;;
24301;SDS011;12421;49.732;20.078;2022-07-29T01:18:22;7.92;;;5.62;;
24301;SDS011;12421;49.732;20.078;2022-07-29T01:28:47;11.45;;;5.28;;
24301;SDS011;12421;49.732;20.078;2022-07-29T01:39:01;7.95;;;4.47;;
24301;SDS011;12421;49.732;20.078;2022-07-29T01:49:17;7.27;;;4.83;;
24301;SDS011;12421;49.732;20.078;2022-07-29T01:59:18;8.35;;;4.42;;
24301;SDS011;12421;49.732;20.078;2022-07-29T02:09:24;6.70;;;4.08;;
24301;SDS011;12421;49.732;20.078;2022-07-29T02:19:27;8.18;;;4.00;;
24301;SDS011;12421;49.732;20.078;2022-07-29T02:29:33;8.93;;;4.23;;
24301;SDS011;12421;49.732;20.078;2022-07-29T02:39:39;8.10;;;3.85;;
24301;SDS011;12421;49.732;20.078;2022-07-29T02:59:59;6.53;;;3.90;;
24301;SDS011;12421;49.732;20.078;2022-07-29T03:10:08;7.70;;;4.10;;
24301;SDS011;12421;49.732;20.078;2022-07-29T03:20:10;6.85;;;3.62;;
24301;SDS011;12421;49.732;20.078;2022-07-29T03:30:14;9.13;;;3.92;;
24301;SDS011;12421;49.732;20.078;2022-07-29T03:40:21;6.00;;;3.58;;
24301;SDS011;12421;49.732;20.078;2022-07-29T03:50:26;7.08;;;3.80;;
24301;SDS011;12421;49.732;20.078;2022-07-29T04:00:30;8.80;;;4.20;;
24301;SDS011;12421;49.732;20.078;2022-07-29T04:10:34;8.65;;;4.67;;
24301;SDS011;12421;49.732;20.078;2022-07-29T04:20:36;10.15;;;5.72;;
24301;SDS011;12421;49.732;20.078;2022-07-29T04:30:38;12.65;;;6.40;;
24301;SDS011;12421;49.732;20.078;2022-07-29T04:40:41;8.30;;;6.12;;
24301;SDS011;12421;49.732;20.078;2022-07-29T04:50:43;7.75;;;6.20;;
24301;SDS011;12421;49.732;20.078;2022-07-29T05:00:45;8.70;;;6.53;;
24301;SDS011;12421;49.732;20.078;2022-07-29T05:10:47;13.03;;;6.60;;
24301;SDS011;12421;49.732;20.078;2022-07-29T05:20:49;9.38;;;6.08;;
24301;SDS011;12421;49.732;20.078;2022-07-29T05:30:54;9.28;;;6.75;;
24301;SDS011;12421;49.732;20.078;2022-07-29T06:03:28;6.97;;;4.55;;
24301;SDS011;12421;49.732;20.078;2022-07-29T06:13:32;5.00;;;3.70;;
24301;SDS011;12421;49.732;20.078;2022-07-29T06:23:39;5.05;;;3.60;;
24301;SDS011;12421;49.732;20.078;2022-07-29T06:45:17;6.80;;;3.00;;
24301;SDS011;12421;49.732;20.078;2022-07-29T07:28:21;5.22;;;2.70;;
24301;SDS011;12421;49.732;20.078;2022-07-29T07:38:23;6.15;;;3.15;;
24301;SDS011;12421;49.732;20.078;2022-07-29T07:48:31;4.20;;;2.47;;
24301;SDS011;12421;49.732;20.078;2022-07-29T07:58:40;5.12;;;2.55;;
24301;SDS011;12421;49.732;20.078;2022-07-29T08:08:42;4.17;;;2.75;;
24301;SDS011;12421;49.732;20.078;2022-07-29T08:18:45;5.50;;;3.05;;
24301;SDS011;12421;49.732;20.078;2022-07-29T08:28:47;6.62;;;3.25;;
24301;SDS011;12421;49.732;20.078;2022-07-29T08:38:51;9.00;;;3.33;;
24301;SDS011;12421;49.732;20.078;2022-07-29T08:48:54;6.72;;;2.70;;
24301;SDS011;12421;49.732;20.078;2022-07-29T08:58:57;7.58;;;3.27;;
24301;SDS011;12421;49.732;20.078;2022-07-29T09:09:07;5.30;;;3.45;;
24301;SDS011;12421;49.732;20.078;2022-07-29T09:19:31;6.72;;;3.05;;
24301;SDS011;12421;49.732;20.078;2022-07-29T09:29:34;8.40;;;3.30;;
24301;SDS011;12421;49.732;20.078;2022-07-29T09:39:44;10.70;;;3.33;;
24301;SDS011;12421;49.732;20.078;2022-07-29T10:00:17;6.78;;;3.25;;
24301;SDS011;12421;49.732;20.078;2022-07-29T10:10:30;4.42;;;2.90;;
24301;SDS011;12421;49.732;20.078;2022-07-29T10:31:03;6.72;;;3.00;;
24301;SDS011;12421;49.732;20.078;2022-07-29T11:36:06;8.80;;;2.77;;
24301;SDS011;12421;49.732;20.078;2022-07-29T11:46:45;5.65;;;3.00;;
24301;SDS011;12421;49.732;20.078;2022-07-29T11:56:44;5.45;;;2.90;;
24301;SDS011;12421;49.732;20.078;2022-07-29T12:06:50;4.03;;;2.95;;
24301;SDS011;12421;49.732;20.078;2022-07-29T12:16:53;4.92;;;3.05;;
24301;SDS011;12421;49.732;20.078;2022-07-29T12:26:59;4.10;;;2.70;;
24301;SDS011;12421;49.732;20.078;2022-07-29T12:37:01;7.17;;;2.85;;
24301;SDS011;12421;49.732;20.078;2022-07-29T12:47:05;4.12;;;2.90;;
24301;SDS011;12421;49.732;20.078;2022-07-29T12:57:17;9.48;;;2.85;;
24301;SDS011;12421;49.732;20.078;2022-07-29T13:07:24;3.67;;;2.42;;
24301;SDS011;12421;49.732;20.078;2022-07-29T13:17:42;6.95;;;2.80;;
24301;SDS011;12421;49.732;20.078;2022-07-29T13:27:50;6.70;;;3.00;;
24301;SDS011;12421;49.732;20.078;2022-07-29T13:37:54;5.45;;;2.65;;
24301;SDS011;12421;49.732;20.078;2022-07-29T13:47:56;8.35;;;2.40;;
24301;SDS011;12421;49.732;20.078;2022-07-29T13:58:00;13.10;;;2.72;;
24301;SDS011;12421;49.732;20.078;2022-07-29T14:08:03;3.67;;;2.42;;
24301;SDS011;12421;49.732;20.078;2022-07-29T14:18:05;3.37;;;2.52;;
24301;SDS011;12421;49.732;20.078;2022-07-29T14:28:07;5.78;;;2.58;;
24301;SDS011;12421;49.732;20.078;2022-07-29T14:38:09;7.17;;;2.33;;
24301;SDS011;12421;49.732;20.078;2022-07-29T14:48:11;7.47;;;2.50;;
24301;SDS011;12421;49.732;20.078;2022-07-29T14:58:13;8.28;;;2.62;;
24301;SDS011;12421;49.732;20.078;2022-07-29T15:08:15;5.60;;;2.40;;
24301;SDS011;12421;49.732;20.078;2022-07-29T15:18:17;3.87;;;2.37;;
24301;SDS011;12421;49.732;20.078;2022-07-29T15:28:19;7.25;;;2.42;;
24301;SDS011;12421;49.732;20.078;2022-07-29T15:38:22;10.10;;;3.03;;
24301;SDS011;12421;49.732;20.078;2022-07-29T16:12:06;16.50;;;4.15;;
24301;SDS011;12421;49.732;20.078;2022-07-29T16:22:09;5.55;;;2.95;;
24301;SDS011;12421;49.732;20.078;2022-07-29T16:32:11;5.12;;;2.37;;
24301;SDS011;12421;49.732;20.078;2022-07-29T16:52:58;6.15;;;3.37;;
24301;SDS011;12421;49.732;20.078;2022-07-29T17:03:00;11.27;;;3.63;;
24301;SDS011;12421;49.732;20.078;2022-07-29T17:13:02;7.08;;;3.50;;
24301;SDS011;12421;49.732;20.078;2022-07-29T17:23:04;6.10;;;4.05;;
24301;SDS011;12421;49.732;20.078;2022-07-29T17:33:07;6.92;;;4.25;;
24301;SDS011;12421;49.732;20.078;2022-07-29T17:43:09;5.95;;;3.95;;
24301;SDS011;12421;49.732;20.078;2022-07-29T17:53:11;6.37;;;3.80;;
24301;SDS011;12421;49.732;20.078;2022-07-29T18:03:14;5.97;;;3.92;;
24301;SDS011;12421;49.732;20.078;2022-07-29T18:13:17;6.28;;;3.75;;
24301;SDS011;12421;49.732;20.078;2022-07-29T18:23:20;5.83;;;4.12;;
24301;SDS011;12421;49.732;20.078;2022-07-29T18:33:22;8.15;;;4.60;;
24301;SDS011;12421;49.732;20.078;2022-07-29T18:43:24;7.22;;;4.55;;
24301;SDS011;12421;49.732;20.078;2022-07-29T18:53:27;9.90;;;6.10;;
24301;SDS011;12421;49.732;20.078;2022-07-29T19:15:11;10.05;;;5.90;;
24301;SDS011;12421;49.732;20.078;2022-07-29T19:25:30;8.13;;;5.50;;
24301;SDS011;12421;49.732;20.078;2022-07-29T19:35:32;10.90;;;5.90;;
24301;SDS011;12421;49.732;20.078;2022-07-29T19:45:35;7.30;;;5.75;;
24301;SDS011;12421;49.732;20.078;2022-07-29T19:55:37;8.85;;;6.20;;
24301;SDS011;12421;49.732;20.078;2022-07-29T20:05:39;8.10;;;5.53;;
24301;SDS011;12421;49.732;20.078;2022-07-29T20:15:41;16.42;;;9.60;;
24301;SDS011;12421;49.732;20.078;2022-07-29T20:25:46;13.40;;;8.95;;
24301;SDS011;12421;49.732;20.078;2022-07-29T20:35:50;14.78;;;10.13;;
24301;SDS011;12421;49.732;20.078;2022-07-29T20:45:53;14.30;;;9.28;;
24301;SDS011;12421;49.732;20.078;2022-07-29T20:55:55;12.45;;;7.75;;
24301;SDS011;12421;49.732;20.078;2022-07-29T21:05:57;11.18;;;6.55;;
24301;SDS011;12421;49.732;20.078;2022-07-29T21:16:00;14.73;;;7.37;;
24301;SDS011;12421;49.732;20.078;2022-07-29T21:26:03;9.03;;;5.83;;
24301;SDS011;12421;49.732;20.078;2022-07-29T21:36:05;8.43;;;5.55;;
24301;SDS011;12421;49.732;20.078;2022-07-29T21:46:08;7.37;;;4.95;;
24301;SDS011;12421;49.732;20.078;2022-07-29T21:56:10;11.50;;;5.75;;
24301;SDS011;12421;49.732;20.078;2022-07-29T22:06:12;9.38;;;5.40;;
24301;SDS011;12421;49.732;20.078;2022-07-29T22:16:14;11.43;;;4.55;;
24301;SDS011;12421;49.732;20.078;2022-07-29T22:26:16;11.08;;;5.03;;
24301;SDS011;12421;49.732;20.078;2022-07-29T22:36:18;6.92;;;4.45;;
24301;SDS011;12421;49.732;20.078;2022-07-29T22:46:20;7.85;;;4.08;;
24301;SDS011;12421;49.732;20.078;2022-07-29T22:56:22;6.65;;;4.62;;
24301;SDS011;12421;49.732;20.078;2022-07-29T23:06:24;6.87;;;4.40;;
24301;SDS011;12421;49.732;20.078;2022-07-29T23:16:26;6.67;;;4.50;;
24301;SDS011;12421;49.732;20.078;2022-07-29T23:26:30;5.58;;;4.08;;
24301;SDS011;12421;49.732;20.078;2022-07-29T23:36:32;11.03;;;4.70;;
24301;SDS011;12421;49.732;20.078;2022-07-29T23:46:34;6.78;;;4.10;;
24301;SDS011;12421;49.732;20.078;2022-07-29T23:56:36;9.28;;;4.90;;
